Time;durP1;ratioP1;P1;durP2;ratioP2;P2;SDS_P1;SDS_P2;PMS_P1;PMS_P2;Temp;Humidity;BMP_temperature;BMP_pressure;BME280_temperature;BME280_humidity;BME280_pressure;Samples;Min_cycle;Max_cycle;Signal;HPM_P1;HPM_P2
2021/09/22 00:00:11;;;;;;;6.38;5.53;;;;;;;;;;5078786;28;20024;-63
2021/09/22 00:02:36;;;;;;;9.43;6.15;;;;;;;;;;5077791;28;20131;-63
2021/09/22 00:05:02;;;;;;;6.10;5.40;;;;;;;;;;5078585;28;20025;-62
2021/09/22 00:07:27;;;;;;;6.53;5.10;;;;;;;;;;5077776;28;20077;-63
2021/09/22 00:09:52;;;;;;;5.93;5.22;;;;;;;;;;5079462;28;20085;-63
2021/09/22 00:12:17;;;;;;;6.55;5.32;;;;;;;;;;5078159;28;20419;-62
2021/09/22 00:14:43;;;;;;;5.93;5.07;;;;;;;;;;5080270;28;20086;-63
2021/09/22 00:17:09;;;;;;;8.02;6.10;;;;;;;;;;5079397;28;20513;-62
2021/09/22 00:19:34;;;;;;;7.88;5.68;;;;;;;;;;5077345;28;20698;-63
2021/09/22 00:21:59;;;;;;;6.95;5.53;;;;;;;;;;5080528;28;20028;-63
2021/09/22 00:24:25;;;;;;;7.25;5.95;;;;;;;;;;5076319;28;20071;-63
2021/09/22 00:26:50;;;;;;;6.15;5.53;;;;;;;;;;5080203;28;20057;-63
2021/09/22 00:29:15;;;;;;;7.93;5.80;;;;;;;;;;5076186;28;20107;-63
2021/09/22 00:31:41;;;;;;;5.88;5.28;;;;;;;;;;5080170;28;20334;-63
2021/09/22 00:34:06;;;;;;;5.00;4.47;;;;;;;;;;5075537;28;20040;-63
2021/09/22 00:36:32;;;;;;;6.82;5.45;;;;;;;;;;5079636;28;20032;-63
2021/09/22 00:38:57;;;;;;;6.38;4.95;;;;;;;;;;5080185;28;20024;-62
2021/09/22 00:41:23;;;;;;;5.70;5.20;;;;;;;;;;5083168;28;20031;-63
2021/09/22 00:43:48;;;;;;;7.22;5.28;;;;;;;;;;5080829;28;20036;-63
2021/09/22 00:46:13;;;;;;;6.22;5.28;;;;;;;;;;5082817;28;20088;-63
2021/09/22 00:48:38;;;;;;;7.95;5.47;;;;;;;;;;5082891;28;20351;-62
2021/09/22 00:51:05;;;;;;;6.85;5.95;;;;;;;;;;5080766;28;20033;-63
2021/09/22 00:53:30;;;;;;;7.82;5.53;;;;;;;;;;5081596;28;20042;-63
2021/09/22 00:55:56;;;;;;;7.60;5.60;;;;;;;;;;5080978;28;20525;-63
2021/09/22 00:58:22;;;;;;;6.18;5.53;;;;;;;;;;5081978;28;20023;-63
2021/09/22 01:00:47;;;;;;;6.88;5.97;;;;;;;;;;5080598;28;20021;-63
2021/09/22 01:03:12;;;;;;;7.88;5.30;;;;;;;;;;5081372;28;20036;-62
2021/09/22 01:05:38;;;;;;;7.60;6.05;;;;;;;;;;5081422;28;20021;-63
2021/09/22 01:08:05;;;;;;;11.45;5.68;;;;;;;;;;5080565;28;20044;-63
2021/09/22 01:10:31;;;;;;;7.70;5.65;;;;;;;;;;5081484;28;20093;-63
2021/09/22 01:12:56;;;;;;;7.72;5.88;;;;;;;;;;5080302;28;20772;-63
2021/09/22 01:15:32;;;;;;;6.57;5.93;;;;;;;;;;5082095;28;20020;-63
2021/09/22 01:17:58;;;;;;;8.20;5.93;;;;;;;;;;5080551;28;20028;-63
2021/09/22 01:20:27;;;;;;;6.30;5.53;;;;;;;;;;5081736;28;20546;-63
2021/09/22 01:22:52;;;;;;;12.52;6.35;;;;;;;;;;5083249;28;20043;-63
2021/09/22 01:25:18;;;;;;;7.43;5.72;;;;;;;;;;5080952;28;20036;-63
2021/09/22 01:27:50;;;;;;;6.50;5.75;;;;;;;;;;5081160;28;20026;-64
2021/09/22 01:30:16;;;;;;;8.18;5.88;;;;;;;;;;5081498;28;20028;-63
2021/09/22 01:32:48;;;;;;;7.20;5.47;;;;;;;;;;5079679;28;20026;-63
2021/09/22 01:35:13;;;;;;;6.00;5.40;;;;;;;;;;5079089;28;20770;-63
2021/09/22 01:37:39;;;;;;;7.30;5.40;;;;;;;;;;5084575;28;20093;-63
2021/09/22 01:40:04;;;;;;;7.38;5.65;;;;;;;;;;5083166;28;20024;-63
2021/09/22 01:42:30;;;;;;;6.32;5.60;;;;;;;;;;5081285;28;20495;-63
2021/09/22 01:44:55;;;;;;;7.10;6.15;;;;;;;;;;5079251;28;20060;-63
2021/09/22 01:47:20;;;;;;;7.22;6.50;;;;;;;;;;5081458;28;20056;-63
2021/09/22 01:49:45;;;;;;;8.23;5.78;;;;;;;;;;5078422;28;20466;-63
2021/09/22 01:52:11;;;;;;;8.68;6.55;;;;;;;;;;5080411;28;20016;-62
2021/09/22 01:54:36;;;;;;;7.97;6.47;;;;;;;;;;5079761;28;20036;-63
2021/09/22 01:57:02;;;;;;;7.15;6.05;;;;;;;;;;5080779;28;20091;-63
2021/09/22 01:59:27;;;;;;;7.20;5.80;;;;;;;;;;5080525;28;20024;-63
2021/09/22 02:01:52;;;;;;;7.68;6.65;;;;;;;;;;5080294;28;20043;-63
2021/09/22 02:04:18;;;;;;;9.20;5.75;;;;;;;;;;5080112;28;20028;-63
2021/09/22 02:06:43;;;;;;;7.68;5.85;;;;;;;;;;5079686;28;20070;-63
2021/09/22 02:09:08;;;;;;;7.43;6.72;;;;;;;;;;5079847;28;20040;-63
2021/09/22 02:11:33;;;;;;;12.02;6.30;;;;;;;;;;5080823;28;20063;-63
2021/09/22 02:13:59;;;;;;;6.40;5.72;;;;;;;;;;5079326;28;20491;-63
2021/09/22 02:16:24;;;;;;;6.68;5.68;;;;;;;;;;5077924;28;20023;-63
2021/09/22 02:18:51;;;;;;;7.82;5.53;;;;;;;;;;5079480;28;20058;-63
2021/09/22 02:21:16;;;;;;;8.15;6.10;;;;;;;;;;5080563;28;20070;-64
2021/09/22 02:23:42;;;;;;;8.48;6.07;;;;;;;;;;5078412;28;20497;-63
2021/09/22 02:26:07;;;;;;;7.75;5.72;;;;;;;;;;5078416;28;20016;-63
2021/09/22 02:28:33;;;;;;;9.05;5.72;;;;;;;;;;5080036;28;20020;-63
2021/09/22 02:30:58;;;;;;;7.03;5.78;;;;;;;;;;5077475;28;20377;-63
2021/09/22 02:33:23;;;;;;;7.35;6.10;;;;;;;;;;5082192;28;20032;-62
2021/09/22 02:35:49;;;;;;;9.70;6.43;;;;;;;;;;5064071;28;20075;-65
2021/09/22 02:38:14;;;;;;;7.35;6.15;;;;;;;;;;5081910;28;20032;-65
2021/09/22 02:40:39;;;;;;;7.63;6.18;;;;;;;;;;5082701;28;20028;-64
2021/09/22 02:43:05;;;;;;;7.82;6.88;;;;;;;;;;5082051;28;20070;-63
2021/09/22 02:45:30;;;;;;;7.68;6.90;;;;;;;;;;5081835;28;20358;-64
2021/09/22 02:47:55;;;;;;;9.23;6.32;;;;;;;;;;5078470;28;20727;-63
2021/09/22 02:50:21;;;;;;;10.98;6.00;;;;;;;;;;5080773;28;20050;-63
2021/09/22 02:52:46;;;;;;;7.82;6.72;;;;;;;;;;5077559;28;20794;-63
2021/09/22 02:55:12;;;;;;;9.63;5.75;;;;;;;;;;5080262;28;20032;-63
2021/09/22 02:57:37;;;;;;;8.43;5.88;;;;;;;;;;5074807;28;20028;-63
2021/09/22 03:00:04;;;;;;;7.43;6.05;;;;;;;;;;5080048;28;20458;-64
2021/09/22 03:02:29;;;;;;;9.38;6.47;;;;;;;;;;5079418;28;20028;-63
2021/09/22 03:04:55;;;;;;;8.05;6.50;;;;;;;;;;5080714;28;20028;-62
2021/09/22 03:07:20;;;;;;;7.93;6.88;;;;;;;;;;5076805;28;20105;-63
2021/09/22 03:09:45;;;;;;;8.68;6.78;;;;;;;;;;5078116;28;20020;-63
2021/09/22 03:12:10;;;;;;;8.80;7.05;;;;;;;;;;5077047;28;20089;-64
2021/09/22 03:14:36;;;;;;;9.35;7.15;;;;;;;;;;5072790;28;20056;-64
2021/09/22 03:17:01;;;;;;;7.28;6.53;;;;;;;;;;5071554;28;20048;-64
2021/09/22 03:19:27;;;;;;;7.18;6.32;;;;;;;;;;5076796;28;20392;-64
2021/09/22 03:21:52;;;;;;;8.75;6.57;;;;;;;;;;5075831;28;20490;-64
2021/09/22 03:24:17;;;;;;;9.68;6.32;;;;;;;;;;5076387;28;20035;-65
2021/09/22 03:26:42;;;;;;;7.10;6.40;;;;;;;;;;5077051;28;20023;-66
2021/09/22 03:29:08;;;;;;;8.20;7.25;;;;;;;;;;5083418;28;20089;-66
2021/09/22 03:31:33;;;;;;;11.02;6.82;;;;;;;;;;5083468;28;20038;-66
2021/09/22 03:33:58;;;;;;;12.82;7.72;;;;;;;;;;5077619;28;20024;-66
2021/09/22 03:36:24;;;;;;;8.15;6.30;;;;;;;;;;5080385;28;20397;-66
2021/09/22 03:38:49;;;;;;;12.05;8.10;;;;;;;;;;5077344;28;20024;-66
2021/09/22 03:41:14;;;;;;;12.43;7.05;;;;;;;;;;5086537;28;20352;-67
2021/09/22 03:43:40;;;;;;;8.68;6.07;;;;;;;;;;5088441;28;20051;-66
2021/09/22 03:46:06;;;;;;;9.15;6.82;;;;;;;;;;5095013;28;20036;-66
2021/09/22 03:48:32;;;;;;;7.97;6.90;;;;;;;;;;5079405;28;20042;-66
2021/09/22 03:50:57;;;;;;;9.25;6.55;;;;;;;;;;5077397;28;20056;-66
2021/09/22 03:53:22;;;;;;;9.15;7.30;;;;;;;;;;5080447;28;20772;-66
2021/09/22 03:55:48;;;;;;;8.55;6.47;;;;;;;;;;5077861;28;20107;-66
2021/09/22 03:58:13;;;;;;;7.72;6.18;;;;;;;;;;5079386;28;20741;-66
2021/09/22 04:00:39;;;;;;;9.52;6.53;;;;;;;;;;5078114;28;20036;-66
2021/09/22 04:03:05;;;;;;;11.32;7.35;;;;;;;;;;5080203;28;20028;-66
2021/09/22 04:05:30;;;;;;;9.32;7.28;;;;;;;;;;5078440;28;20024;-67
2021/09/22 04:07:55;;;;;;;10.40;7.18;;;;;;;;;;5078933;28;20044;-66
2021/09/22 04:10:21;;;;;;;10.27;7.68;;;;;;;;;;5078366;28;20130;-67
2021/09/22 04:12:46;;;;;;;12.27;6.93;;;;;;;;;;5080481;28;20024;-66
2021/09/22 04:15:12;;;;;;;7.80;6.85;;;;;;;;;;5084746;28;20028;-66
2021/09/22 04:17:37;;;;;;;9.32;7.20;;;;;;;;;;5080645;28;20060;-66
2021/09/22 04:20:03;;;;;;;9.07;6.95;;;;;;;;;;5084443;28;20544;-66
2021/09/22 04:22:29;;;;;;;10.60;7.20;;;;;;;;;;5083165;28;20185;-67
2021/09/22 04:24:54;;;;;;;7.68;6.38;;;;;;;;;;5084373;28;20096;-66
2021/09/22 04:27:19;;;;;;;8.50;7.15;;;;;;;;;;5084944;28;20040;-66
2021/09/22 04:29:44;;;;;;;9.15;7.20;;;;;;;;;;5082692;28;20024;-66
2021/09/22 04:32:11;;;;;;;9.35;6.15;;;;;;;;;;5081063;28;20020;-67
2021/09/22 04:34:36;;;;;;;9.32;6.78;;;;;;;;;;5084636;28;20029;-67
2021/09/22 04:37:02;;;;;;;8.60;7.38;;;;;;;;;;5083337;28;20464;-67
2021/09/22 04:39:27;;;;;;;9.32;6.60;;;;;;;;;;5080675;28;20040;-67
2021/09/22 04:41:52;;;;;;;7.55;6.32;;;;;;;;;;5083579;28;20177;-65
2021/09/22 04:44:18;;;;;;;12.25;7.97;;;;;;;;;;5080311;28;20045;-64
2021/09/22 04:46:43;;;;;;;7.03;6.07;;;;;;;;;;5079022;28;20021;-65
2021/09/22 04:49:10;;;;;;;7.22;6.22;;;;;;;;;;5077417;28;20078;-65
2021/09/22 04:51:35;;;;;;;7.28;6.18;;;;;;;;;;5082730;28;20066;-64
2021/09/22 04:54:00;;;;;;;7.43;6.60;;;;;;;;;;5083463;28;20024;-64
2021/09/22 04:56:25;;;;;;;7.15;6.38;;;;;;;;;;5082953;28;20476;-64
2021/09/22 04:58:51;;;;;;;8.68;6.57;;;;;;;;;;5080150;28;20032;-64
2021/09/22 05:01:16;;;;;;;7.35;6.65;;;;;;;;;;5082100;28;20116;-64
2021/09/22 05:03:41;;;;;;;6.93;6.20;;;;;;;;;;5083038;28;20028;-61
2021/09/22 05:06:07;;;;;;;7.63;6.47;;;;;;;;;;5078513;28;20024;-64
2021/09/22 05:08:32;;;;;;;6.40;5.80;;;;;;;;;;5064752;28;20667;-64
2021/09/22 05:10:57;;;;;;;11.45;5.55;;;;;;;;;;5080954;28;20021;-66
2021/09/22 05:13:23;;;;;;;8.27;5.40;;;;;;;;;;5063212;28;20040;-64
2021/09/22 05:15:49;;;;;;;7.82;6.63;;;;;;;;;;5079927;28;20028;-65
2021/09/22 05:18:15;;;;;;;6.60;6.00;;;;;;;;;;5076558;28;20031;-65
2021/09/22 05:20:40;;;;;;;7.32;6.60;;;;;;;;;;5081420;28;20110;-65
2021/09/22 05:23:06;;;;;;;12.15;6.88;;;;;;;;;;5082945;28;20032;-65
2021/09/22 05:25:31;;;;;;;7.07;6.25;;;;;;;;;;5081585;28;20012;-65
2021/09/22 05:27:56;;;;;;;8.65;6.55;;;;;;;;;;5080732;28;20044;-64
2021/09/22 05:30:22;;;;;;;9.45;6.20;;;;;;;;;;5081947;28;20024;-64
2021/09/22 05:32:47;;;;;;;7.55;6.38;;;;;;;;;;5083201;28;20024;-64
2021/09/22 05:35:13;;;;;;;6.47;5.88;;;;;;;;;;5079387;28;20024;-64
2021/09/22 05:37:38;;;;;;;6.68;5.93;;;;;;;;;;5082158;28;20031;-64
2021/09/22 05:40:05;;;;;;;7.65;6.03;;;;;;;;;;5079513;28;20039;-64
2021/09/22 05:42:30;;;;;;;7.07;6.25;;;;;;;;;;5082484;28;20020;-64
2021/09/22 05:44:55;;;;;;;8.70;5.90;;;;;;;;;;5078429;28;20029;-63
2021/09/22 05:47:20;;;;;;;9.23;6.05;;;;;;;;;;5083024;28;20024;-64
2021/09/22 05:49:46;;;;;;;7.47;6.78;;;;;;;;;;5081676;28;20016;-64
2021/09/22 05:52:11;;;;;;;6.53;5.90;;;;;;;;;;5081971;28;20474;-64
2021/09/22 05:54:36;;;;;;;7.60;6.57;;;;;;;;;;5078833;28;20029;-64
2021/09/22 05:57:02;;;;;;;9.45;7.40;;;;;;;;;;5081889;28;20032;-64
2021/09/22 05:59:27;;;;;;;7.93;5.82;;;;;;;;;;5080293;28;20024;-65
2021/09/22 06:01:53;;;;;;;9.60;6.32;;;;;;;;;;5081073;28;20024;-65
2021/09/22 06:04:18;;;;;;;9.73;7.50;;;;;;;;;;5079255;28;20082;-65
2021/09/22 06:06:43;;;;;;;7.95;6.57;;;;;;;;;;5080529;28;20047;-65
2021/09/22 06:09:08;;;;;;;8.05;7.28;;;;;;;;;;5080281;28;20126;-65
2021/09/22 06:11:34;;;;;;;9.57;7.40;;;;;;;;;;5080439;28;20049;-65
2021/09/22 06:13:59;;;;;;;9.70;7.68;;;;;;;;;;5079513;28;20342;-65
2021/09/22 06:16:25;;;;;;;8.48;7.22;;;;;;;;;;5080077;28;20491;-65
2021/09/22 06:18:51;;;;;;;7.93;7.07;;;;;;;;;;5080689;28;20024;-65
2021/09/22 06:21:16;;;;;;;8.85;7.43;;;;;;;;;;5079381;28;20020;-65
2021/09/22 06:23:42;;;;;;;9.32;7.75;;;;;;;;;;5081719;28;20024;-65
2021/09/22 06:26:08;;;;;;;11.18;8.05;;;;;;;;;;5077882;28;20042;-64
2021/09/22 06:28:34;;;;;;;9.35;8.45;;;;;;;;;;5081270;28;20073;-64
2021/09/22 06:30:59;;;;;;;8.15;6.88;;;;;;;;;;5079461;28;20032;-64
2021/09/22 06:33:24;;;;;;;8.20;6.88;;;;;;;;;;5082350;28;20214;-64
2021/09/22 06:35:50;;;;;;;8.23;6.40;;;;;;;;;;5083749;28;20435;-64
2021/09/22 06:38:15;;;;;;;8.75;6.82;;;;;;;;;;5078341;28;20107;-64
2021/09/22 06:40:40;;;;;;;8.88;6.97;;;;;;;;;;5080935;28;20059;-64
2021/09/22 06:43:06;;;;;;;9.60;7.15;;;;;;;;;;5081352;28;20042;-65
2021/09/22 06:45:31;;;;;;;11.27;6.95;;;;;;;;;;5063402;28;20056;-65
2021/09/22 06:47:57;;;;;;;8.68;7.28;;;;;;;;;;5077657;28;20055;-66
2021/09/22 06:50:22;;;;;;;10.20;7.65;;;;;;;;;;5081930;28;20024;-65
2021/09/22 06:52:47;;;;;;;9.55;7.82;;;;;;;;;;5077155;28;20529;-65
2021/09/22 06:55:13;;;;;;;8.88;7.43;;;;;;;;;;5081767;28;20051;-65
2021/09/22 06:57:38;;;;;;;8.68;6.75;;;;;;;;;;5077964;28;20035;-65
2021/09/22 07:00:04;;;;;;;10.32;7.15;;;;;;;;;;5081125;28;20105;-65
2021/09/22 07:02:30;;;;;;;10.30;7.57;;;;;;;;;;5079223;28;20069;-65
2021/09/22 07:04:55;;;;;;;10.60;7.47;;;;;;;;;;5081978;28;20458;-64
2021/09/22 07:07:21;;;;;;;9.93;7.45;;;;;;;;;;5073835;28;20146;-64
2021/09/22 07:09:46;;;;;;;12.60;8.13;;;;;;;;;;5080029;28;20040;-64
2021/09/22 07:12:11;;;;;;;9.70;6.33;;;;;;;;;;5078710;28;20029;-66
2021/09/22 07:14:37;;;;;;;10.20;8.80;;;;;;;;;;5079687;28;20064;-64
2021/09/22 07:17:02;;;;;;;15.43;8.30;;;;;;;;;;5078957;28;20024;-65
2021/09/22 07:19:27;;;;;;;12.93;8.60;;;;;;;;;;5079137;28;20024;-65
2021/09/22 07:21:52;;;;;;;11.53;8.33;;;;;;;;;;5079672;28;20098;-64
2021/09/22 07:24:18;;;;;;;13.10;7.90;;;;;;;;;;5061045;28;20035;-64
2021/09/22 07:26:43;;;;;;;11.27;8.17;;;;;;;;;;5078723;28;20397;-63
2021/09/22 07:29:08;;;;;;;13.87;8.60;;;;;;;;;;5081049;28;20026;-64
2021/09/22 07:31:34;;;;;;;14.13;8.57;;;;;;;;;;5078193;28;20016;-63
2021/09/22 07:34:00;;;;;;;13.90;8.90;;;;;;;;;;5080318;28;20028;-64
2021/09/22 07:36:25;;;;;;;13.53;8.53;;;;;;;;;;5080414;28;20086;-64
2021/09/22 07:38:51;;;;;;;16.13;9.43;;;;;;;;;;5082540;28;20653;-63
2021/09/22 07:41:16;;;;;;;13.47;9.70;;;;;;;;;;5079010;28;20017;-65
2021/09/22 07:43:41;;;;;;;15.90;10.20;;;;;;;;;;5086269;28;20031;-64
2021/09/22 07:46:06;;;;;;;15.67;10.47;;;;;;;;;;5088803;28;20712;-65
2021/09/22 07:48:34;;;;;;;15.67;10.70;;;;;;;;;;5082411;28;20119;-64
2021/09/22 07:50:59;;;;;;;15.43;9.50;;;;;;;;;;5076435;28;20065;-64
2021/09/22 07:53:24;;;;;;;15.57;11.20;;;;;;;;;;5076973;28;20060;-64
2021/09/22 07:55:49;;;;;;;18.23;10.80;;;;;;;;;;5080361;28;20392;-63
2021/09/22 07:58:18;;;;;;;19.47;11.50;;;;;;;;;;5077293;28;20032;-63
2021/09/22 08:00:43;;;;;;;15.00;10.50;;;;;;;;;;5061125;28;20495;-64
2021/09/22 08:03:08;;;;;;;14.57;10.57;;;;;;;;;;5078078;28;20020;-64
2021/09/22 08:05:38;;;;;;;15.40;10.13;;;;;;;;;;5079101;28;20093;-63
2021/09/22 08:08:04;;;;;;;12.10;8.97;;;;;;;;;;5076465;28;20063;-64
2021/09/22 08:10:29;;;;;;;14.83;10.07;;;;;;;;;;5078564;28;20708;-63
2021/09/22 08:12:54;;;;;;;14.87;9.03;;;;;;;;;;5078832;28;20063;-64
2021/09/22 08:15:20;;;;;;;13.93;10.03;;;;;;;;;;5078811;28;20033;-64
2021/09/22 08:17:45;;;;;;;13.93;9.33;;;;;;;;;;5077844;28;20690;-64
2021/09/22 08:20:11;;;;;;;11.67;8.30;;;;;;;;;;5060121;28;20080;-64
2021/09/22 08:22:36;;;;;;;13.20;9.90;;;;;;;;;;5077657;28;20502;-64
2021/09/22 08:25:02;;;;;;;11.60;9.10;;;;;;;;;;5080110;28;20016;-64
2021/09/22 08:27:28;;;;;;;14.50;9.83;;;;;;;;;;5058575;28;20464;-64
2021/09/22 08:29:53;;;;;;;16.30;9.83;;;;;;;;;;5078873;28;20082;-63
2021/09/22 08:32:18;;;;;;;14.40;9.03;;;;;;;;;;5076255;28;20059;-63
2021/09/22 08:34:44;;;;;;;11.30;9.47;;;;;;;;;;5080027;28;20032;-63
2021/09/22 08:37:09;;;;;;;14.63;10.80;;;;;;;;;;5075526;28;20028;-64
2021/09/22 08:39:35;;;;;;;14.07;9.97;;;;;;;;;;5079539;28;20296;-65
2021/09/22 08:42:01;;;;;;;13.07;8.97;;;;;;;;;;5075072;28;20074;-65
2021/09/22 08:44:26;;;;;;;12.83;8.77;;;;;;;;;;5079361;28;20028;-64
2021/09/22 08:46:52;;;;;;;11.10;7.77;;;;;;;;;;5075242;28;20062;-64
2021/09/22 08:49:17;;;;;;;10.23;7.23;;;;;;;;;;5076307;28;20021;-64
2021/09/22 08:51:43;;;;;;;12.53;8.40;;;;;;;;;;5078479;28;20031;-64
2021/09/22 08:54:09;;;;;;;10.93;7.10;;;;;;;;;;5076647;28;20066;-65
2021/09/22 08:56:38;;;;;;;10.33;7.27;;;;;;;;;;5078109;28;20024;-65
2021/09/22 08:59:04;;;;;;;10.93;8.20;;;;;;;;;;5079613;28;20020;-64
2021/09/22 09:01:29;;;;;;;11.40;8.33;;;;;;;;;;5081542;28;20028;-64
2021/09/22 09:03:54;;;;;;;9.03;7.30;;;;;;;;;;5081645;28;20024;-66
2021/09/22 09:06:20;;;;;;;9.33;7.30;;;;;;;;;;5081217;28;20096;-65
2021/09/22 09:08:46;;;;;;;9.50;7.40;;;;;;;;;;5077427;28;20072;-65
2021/09/22 09:11:11;;;;;;;10.00;7.50;;;;;;;;;;5080407;28;20074;-65
2021/09/22 09:13:49;;;;;;;10.70;6.30;;;;;;;;;;5082612;28;20102;-65
2021/09/22 09:16:18;;;;;;;7.00;5.73;;;;;;;;;;5080401;28;20036;-65
2021/09/22 09:18:45;;;;;;;8.63;6.40;;;;;;;;;;5081363;28;20103;-64
2021/09/22 09:21:10;;;;;;;7.67;5.83;;;;;;;;;;5081325;28;20024;-61
2021/09/22 09:23:35;;;;;;;11.00;7.07;;;;;;;;;;5084131;28;20114;-65
2021/09/22 09:26:05;;;;;;;10.60;6.65;;;;;;;;;;5079301;28;20103;-65
2021/09/22 09:28:32;;;;;;;8.43;7.03;;;;;;;;;;5079031;28;20024;-65
2021/09/22 09:31:03;;;;;;;8.52;7.35;;;;;;;;;;5082036;28;20024;-65
2021/09/22 09:33:33;;;;;;;7.15;6.15;;;;;;;;;;5079346;28;20135;-64
2021/09/22 09:36:00;;;;;;;9.30;5.85;;;;;;;;;;5082088;28;20030;-67
2021/09/22 09:38:34;;;;;;;9.10;6.20;;;;;;;;;;5080086;28;20036;-65
2021/09/22 09:41:00;;;;;;;9.05;6.88;;;;;;;;;;5080651;28;20031;-65
2021/09/22 09:43:25;;;;;;;8.55;7.43;;;;;;;;;;5082346;28;20036;-64
2021/09/22 09:45:50;;;;;;;9.20;7.00;;;;;;;;;;5080617;28;20040;-65
2021/09/22 09:48:17;;;;;;;7.95;6.63;;;;;;;;;;5083896;28;20012;-64
2021/09/22 09:50:42;;;;;;;8.98;7.68;;;;;;;;;;5081580;28;20020;-65
2021/09/22 09:53:08;;;;;;;8.93;7.07;;;;;;;;;;5082741;28;20081;-63
2021/09/22 09:55:36;;;;;;;10.55;7.57;;;;;;;;;;5079646;28;20103;-64
2021/09/22 09:58:01;;;;;;;7.78;6.97;;;;;;;;;;5079186;28;20488;-65
2021/09/22 10:00:39;;;;;;;9.60;6.22;;;;;;;;;;5082748;28;20128;-63
2021/09/22 10:03:08;;;;;;;9.57;6.45;;;;;;;;;;5080988;28;20035;-64
2021/09/22 10:05:33;;;;;;;9.73;7.03;;;;;;;;;;5061567;28;20067;-63
2021/09/22 10:07:59;;;;;;;8.85;6.93;;;;;;;;;;5064307;28;20068;-64
2021/09/22 10:10:24;;;;;;;7.88;5.88;;;;;;;;;;5078200;28;20021;-63
2021/09/22 10:12:49;;;;;;;8.63;6.82;;;;;;;;;;5082339;28;20023;-63
2021/09/22 10:15:15;;;;;;;7.70;6.65;;;;;;;;;;5079425;28;20024;-62
2021/09/22 10:17:43;;;;;;;10.48;6.82;;;;;;;;;;5081295;28;20035;-62
2021/09/22 10:20:09;;;;;;;10.05;7.40;;;;;;;;;;5078551;28;20028;-63
2021/09/22 10:22:34;;;;;;;8.77;6.72;;;;;;;;;;5081539;28;20024;-63
2021/09/22 10:25:00;;;;;;;8.10;6.63;;;;;;;;;;5081460;28;20040;-63
2021/09/22 10:27:25;;;;;;;7.85;5.90;;;;;;;;;;5077844;28;20017;-63
2021/09/22 10:30:05;;;;;;;6.95;6.20;;;;;;;;;;5080327;28;20137;-62
2021/09/22 10:32:47;;;;;;;7.78;6.28;;;;;;;;;;5080313;28;20054;-63
2021/09/22 10:35:24;;;;;;;8.07;5.90;;;;;;;;;;5078923;28;20025;-63
2021/09/22 10:37:50;;;;;;;8.32;5.80;;;;;;;;;;5078605;28;20030;-64
2021/09/22 10:40:19;;;;;;;17.33;6.53;;;;;;;;;;5080458;28;20054;-64
2021/09/22 10:42:44;;;;;;;9.98;5.60;;;;;;;;;;5077386;28;20028;-63
2021/09/22 10:45:12;;;;;;;6.32;5.68;;;;;;;;;;5077238;28;20012;-64
2021/09/22 10:47:38;;;;;;;7.85;5.95;;;;;;;;;;5080817;28;20066;-64
2021/09/22 10:50:04;;;;;;;6.05;5.30;;;;;;;;;;5081005;28;20048;-64
2021/09/22 10:52:35;;;;;;;6.60;5.82;;;;;;;;;;5078679;28;20024;-63
2021/09/22 10:55:09;;;;;;;7.53;4.97;;;;;;;;;;5079665;28;20059;-62
2021/09/22 10:57:34;;;;;;;8.95;6.32;;;;;;;;;;5080325;28;20019;-64
2021/09/22 11:00:19;;;;;;;7.05;4.75;;;;;;;;;;5078003;28;20111;-63
2021/09/22 11:02:53;;;;;;;8.45;5.50;;;;;;;;;;5078993;28;20028;-64
2021/09/22 11:05:27;;;;;;;7.65;6.70;;;;;;;;;;5077054;28;20024;-63
2021/09/22 11:07:53;;;;;;;6.67;4.63;;;;;;;;;;5077404;28;20052;-64
2021/09/22 11:10:30;;;;;;;6.40;5.57;;;;;;;;;;5080355;28;20266;-64
2021/09/22 11:13:15;;;;;;;6.65;5.22;;;;;;;;;;5079321;28;20031;-63
2021/09/22 11:15:41;;;;;;;6.40;5.78;;;;;;;;;;5077208;28;20012;-64
2021/09/22 11:18:07;;;;;;;7.57;6.07;;;;;;;;;;5078224;28;20151;-65
2021/09/22 11:20:32;;;;;;;8.55;4.97;;;;;;;;;;5079394;28;20016;-65
2021/09/22 11:23:05;;;;;;;6.20;5.57;;;;;;;;;;5080663;28;20012;-65
2021/09/22 11:25:31;;;;;;;5.97;4.43;;;;;;;;;;5076494;28;20016;-65
2021/09/22 11:28:02;;;;;;;5.55;4.22;;;;;;;;;;5079993;28;20042;-64
2021/09/22 11:30:28;;;;;;;6.10;4.35;;;;;;;;;;5077814;28;20193;-66
2021/09/22 11:32:53;;;;;;;5.75;5.13;;;;;;;;;;5079500;28;20123;-67
2021/09/22 11:35:19;;;;;;;7.03;5.85;;;;;;;;;;5078002;28;20027;-66
2021/09/22 11:37:46;;;;;;;6.53;4.60;;;;;;;;;;5078974;28;20020;-66
2021/09/22 11:40:16;;;;;;;4.70;4.00;;;;;;;;;;5077842;28;20028;-66
2021/09/22 11:43:05;;;;;;;6.00;4.78;;;;;;;;;;5077870;28;20114;-65
2021/09/22 11:45:38;;;;;;;5.47;4.82;;;;;;;;;;5077563;28;20037;-65
2021/09/22 11:48:05;;;;;;;11.63;6.00;;;;;;;;;;5076199;28;20035;-65
2021/09/22 11:50:36;;;;;;;7.22;4.20;;;;;;;;;;5077595;28;20115;-66
2021/09/22 11:53:02;;;;;;;6.53;4.85;;;;;;;;;;5075991;28;20036;-66
2021/09/22 11:55:28;;;;;;;9.02;5.68;;;;;;;;;;5079825;28;20028;-65
2021/09/22 11:57:53;;;;;;;6.63;5.30;;;;;;;;;;5076965;28;20027;-65
2021/09/22 12:00:23;;;;;;;5.63;4.97;;;;;;;;;;5079357;28;20028;-66
2021/09/22 12:02:48;;;;;;;8.07;5.70;;;;;;;;;;5077068;28;20017;-65
2021/09/22 12:05:15;;;;;;;7.28;5.70;;;;;;;;;;5076410;28;20505;-65
2021/09/22 12:07:41;;;;;;;7.55;5.38;;;;;;;;;;5078176;28;20063;-65
2021/09/22 12:10:06;;;;;;;7.10;5.53;;;;;;;;;;5077809;28;20020;-65
2021/09/22 12:12:32;;;;;;;6.65;5.55;;;;;;;;;;5077215;28;20106;-65
2021/09/22 12:14:57;;;;;;;9.68;5.47;;;;;;;;;;5078373;28;20089;-66
2021/09/22 12:17:34;;;;;;;7.15;5.72;;;;;;;;;;5077236;28;20031;-66
2021/09/22 12:20:00;;;;;;;9.60;7.10;;;;;;;;;;5075874;28;20399;-66
2021/09/22 12:22:29;;;;;;;8.27;6.22;;;;;;;;;;5080103;28;20052;-66
2021/09/22 12:24:55;;;;;;;7.55;6.00;;;;;;;;;;5080107;28;20032;-65
2021/09/22 12:27:21;;;;;;;8.20;5.70;;;;;;;;;;5078797;28;20077;-63
2021/09/22 12:30:06;;;;;;;8.35;5.70;;;;;;;;;;5077662;28;20123;-65
2021/09/22 12:32:33;;;;;;;7.65;6.07;;;;;;;;;;5075094;28;20155;-65
2021/09/22 12:35:03;;;;;;;8.27;6.57;;;;;;;;;;5083628;28;20036;-65
2021/09/22 12:37:29;;;;;;;8.05;5.85;;;;;;;;;;5082559;28;20028;-66
2021/09/22 12:39:55;;;;;;;6.57;5.78;;;;;;;;;;5082561;28;20412;-65
2021/09/22 12:42:20;;;;;;;8.30;6.22;;;;;;;;;;5082370;28;20032;-66
2021/09/22 12:44:57;;;;;;;7.53;5.88;;;;;;;;;;5081857;28;20036;-66
2021/09/22 12:47:26;;;;;;;10.23;7.32;;;;;;;;;;5084433;28;20401;-66
2021/09/22 12:50:03;;;;;;;10.63;5.47;;;;;;;;;;5080592;28;20031;-66
2021/09/22 12:52:28;;;;;;;7.05;5.63;;;;;;;;;;5081214;28;20526;-65
2021/09/22 12:54:54;;;;;;;10.02;7.13;;;;;;;;;;5082430;28;20116;-65
2021/09/22 12:57:19;;;;;;;11.07;6.88;;;;;;;;;;5081691;28;20020;-66
2021/09/22 12:59:44;;;;;;;12.25;7.00;;;;;;;;;;5082261;28;20077;-66
2021/09/22 13:02:19;;;;;;;7.38;6.65;;;;;;;;;;5080281;28;20474;-65
2021/09/22 13:04:47;;;;;;;6.80;6.10;;;;;;;;;;5079955;28;20039;-66
2021/09/22 13:07:20;;;;;;;9.25;6.53;;;;;;;;;;5080854;28;20056;-65
2021/09/22 13:09:45;;;;;;;9.10;6.70;;;;;;;;;;5082324;28;20028;-66
2021/09/22 13:12:25;;;;;;;11.88;6.38;;;;;;;;;;5083440;28;20147;-66
2021/09/22 13:14:51;;;;;;;11.00;7.25;;;;;;;;;;5084485;28;20024;-66
2021/09/22 13:17:16;;;;;;;9.18;6.70;;;;;;;;;;5080714;28;20382;-66
2021/09/22 13:19:42;;;;;;;5.22;4.72;;;;;;;;;;5079886;28;20036;-65
2021/09/22 13:22:08;;;;;;;7.00;5.25;;;;;;;;;;5082263;28;20051;-66
2021/09/22 13:24:34;;;;;;;5.78;4.55;;;;;;;;;;5083621;28;20039;-65
2021/09/22 13:27:00;;;;;;;6.10;5.25;;;;;;;;;;5080967;28;20028;-63
2021/09/22 13:29:25;;;;;;;7.10;5.72;;;;;;;;;;5083762;28;20030;-64
2021/09/22 13:31:52;;;;;;;5.38;4.65;;;;;;;;;;5081882;28;20020;-63
2021/09/22 13:34:18;;;;;;;8.55;5.85;;;;;;;;;;5081571;28;20012;-64
2021/09/22 13:36:43;;;;;;;6.75;5.28;;;;;;;;;;5081369;28;20867;-64
2021/09/22 13:39:09;;;;;;;5.45;4.43;;;;;;;;;;5085104;28;20059;-64
2021/09/22 13:41:35;;;;;;;9.25;6.40;;;;;;;;;;5080489;28;20031;-65
2021/09/22 13:44:04;;;;;;;6.57;5.43;;;;;;;;;;5065894;28;20024;-64
2021/09/22 13:46:30;;;;;;;8.60;5.00;;;;;;;;;;5084619;28;20107;-64
2021/09/22 13:48:55;;;;;;;6.72;5.47;;;;;;;;;;5065672;28;20496;-65
2021/09/22 13:51:21;;;;;;;5.55;5.05;;;;;;;;;;5083487;28;20016;-65
2021/09/22 13:53:46;;;;;;;6.03;5.43;;;;;;;;;;5085291;28;20108;-65
2021/09/22 13:56:12;;;;;;;8.10;5.50;;;;;;;;;;5081531;28;20040;-65
2021/09/22 13:58:37;;;;;;;5.75;5.03;;;;;;;;;;5085741;28;20039;-65
2021/09/22 14:01:03;;;;;;;6.40;5.80;;;;;;;;;;5083043;28;20035;-65
2021/09/22 14:03:29;;;;;;;5.50;5.00;;;;;;;;;;5086185;28;20068;-65
2021/09/22 14:05:54;;;;;;;6.68;5.95;;;;;;;;;;5082744;28;20031;-64
2021/09/22 14:08:20;;;;;;;6.72;6.03;;;;;;;;;;5083074;28;20050;-65
2021/09/22 14:10:45;;;;;;;6.50;5.32;;;;;;;;;;5081320;28;20048;-64
2021/09/22 14:13:11;;;;;;;8.40;5.72;;;;;;;;;;5079875;28;20024;-65
2021/09/22 14:15:38;;;;;;;6.90;5.93;;;;;;;;;;5080998;28;20349;-64
2021/09/22 14:18:04;;;;;;;8.40;5.75;;;;;;;;;;5080363;28;20021;-64
2021/09/22 14:20:31;;;;;;;10.90;6.25;;;;;;;;;;5080057;28;20016;-64
2021/09/22 14:22:57;;;;;;;9.35;6.15;;;;;;;;;;5081450;28;20453;-65
2021/09/22 14:25:22;;;;;;;9.98;6.60;;;;;;;;;;5080055;28;20048;-65
2021/09/22 14:27:48;;;;;;;8.40;7.30;;;;;;;;;;5081192;28;20119;-64
2021/09/22 14:30:16;;;;;;;9.32;7.28;;;;;;;;;;5079100;28;20119;-65
2021/09/22 14:32:41;;;;;;;7.97;6.05;;;;;;;;;;5063607;28;20468;-65